Time;durP1;ratioP1;P1;durP2;ratioP2;P2;SDS_P1;SDS_P2;PMS_P1;PMS_P2;Temp;Humidity;BMP_temperature;BMP_pressure;BME280_temperature;BME280_humidity;BME280_pressure;Samples;Min_cycle;Max_cycle;Signal;HPM_P1;HPM_P2
2023/12/29 00:00:42;;;;;;;7.60;7.50;;;21.40;56.50;;;;;;4992274;28;21016;-66
2023/12/29 00:03:09;;;;;;;7.43;7.23;;;21.40;56.40;;;;;;4992182;28;20880;-66
2023/12/29 00:05:37;;;;;;;7.80;7.50;;;21.30;56.40;;;;;;4992340;28;20475;-66
2023/12/29 00:08:05;;;;;;;7.90;7.60;;;21.30;56.50;;;;;;4992164;28;20477;-66
2023/12/29 00:10:31;;;;;;;7.80;7.60;;;21.30;56.50;;;;;;4992180;28;20470;-66
2023/12/29 00:12:58;;;;;;;7.80;7.60;;;21.30;56.60;;;;;;4991793;28;20525;-66
2023/12/29 00:15:25;;;;;;;7.70;7.30;;;21.30;56.60;;;;;;4992124;28;20509;-66
2023/12/29 00:17:52;;;;;;;8.03;7.83;;;21.30;56.50;;;;;;4992100;28;20481;-66
2023/12/29 00:20:19;;;;;;;7.70;7.60;;;21.30;56.50;;;;;;4992273;28;20475;-66
2023/12/29 00:22:47;;;;;;;7.47;7.27;;;21.30;56.60;;;;;;4991935;28;20483;-66
2023/12/29 00:25:15;;;;;;;7.40;7.20;;;21.30;56.70;;;;;;4991859;28;20478;-66
2023/12/29 00:27:42;;;;;;;7.70;7.50;;;21.30;57.00;;;;;;4984257;28;20938;-66
2023/12/29 00:30:10;;;;;;;8.30;8.10;;;21.30;56.70;;;;;;4992173;28;20447;-66
2023/12/29 00:32:37;;;;;;;7.03;6.83;;;21.30;56.70;;;;;;4991954;28;20513;-66
2023/12/29 00:35:04;;;;;;;7.40;7.20;;;21.30;56.60;;;;;;4994489;28;20485;-66
2023/12/29 00:37:31;;;;;;;8.07;7.80;;;21.30;56.70;;;;;;4995632;28;20478;-66
2023/12/29 00:39:59;;;;;;;7.40;7.30;;;21.20;56.70;;;;;;4995883;28;20976;-66
2023/12/29 00:42:26;;;;;;;7.70;7.60;;;21.20;56.70;;;;;;4995717;28;20481;-66
2023/12/29 00:44:53;;;;;;;7.80;7.60;;;21.20;56.80;;;;;;4995827;28;20482;-66
2023/12/29 00:47:20;;;;;;;8.00;7.80;;;21.20;56.80;;;;;;4995543;28;20479;-66
2023/12/29 00:49:47;;;;;;;8.50;8.30;;;21.20;56.80;;;;;;4995917;28;20475;-67
2023/12/29 00:52:14;;;;;;;7.63;7.53;;;21.20;56.80;;;;;;4995675;28;20481;-66
2023/12/29 00:54:41;;;;;;;8.00;7.80;;;21.20;56.80;;;;;;4995559;28;20459;-66
2023/12/29 00:57:09;;;;;;;7.40;7.20;;;21.20;56.90;;;;;;4995518;28;20889;-67
2023/12/29 00:59:39;;;;;;;8.00;7.80;;;21.20;57.00;;;;;;4995530;28;20493;-67
2023/12/29 01:02:06;;;;;;;7.60;7.50;;;21.20;56.90;;;;;;4995385;28;20447;-66
2023/12/29 01:04:32;;;;;;;7.80;7.60;;;21.20;56.90;;;;;;4995488;28;20897;-66
2023/12/29 01:06:59;;;;;;;7.17;7.07;;;21.20;56.80;;;;;;4995443;28;20442;-66
2023/12/29 01:09:27;;;;;;;8.00;7.70;;;21.20;56.90;;;;;;4995088;28;20482;-66
2023/12/29 01:11:54;;;;;;;7.93;7.70;;;21.20;56.90;;;;;;4995263;28;20486;-66
2023/12/29 01:14:22;;;;;;;7.10;7.00;;;21.20;57.50;;;;;;4994908;28;20510;-66
2023/12/29 01:16:49;;;;;;;7.53;7.33;;;21.20;57.00;;;;;;4995215;28;20471;-66
2023/12/29 01:19:16;;;;;;;8.23;8.03;;;21.20;57.00;;;;;;4995075;28;20475;-66
2023/12/29 01:21:43;;;;;;;7.80;7.70;;;21.20;57.10;;;;;;4995019;28;20486;-66
2023/12/29 01:24:10;;;;;;;7.70;7.60;;;21.10;57.00;;;;;;4995059;28;20494;-66
2023/12/29 01:26:38;;;;;;;7.80;7.70;;;21.10;57.00;;;;;;4995041;28;20478;-66
2023/12/29 01:29:06;;;;;;;7.50;7.40;;;21.10;57.10;;;;;;4995092;28;21098;-66
2023/12/29 01:31:34;;;;;;;8.30;8.10;;;21.10;57.00;;;;;;4994886;28;20442;-66
2023/12/29 01:34:01;;;;;;;8.27;8.07;;;21.10;57.00;;;;;;4994507;28;20903;-66
2023/12/29 01:36:28;;;;;;;7.80;7.60;;;21.10;57.10;;;;;;4994933;28;20479;-66
2023/12/29 01:38:55;;;;;;;7.83;7.50;;;21.10;57.00;;;;;;4995036;28;20474;-66
2023/12/29 01:41:22;;;;;;;7.80;7.60;;;21.10;57.00;;;;;;4994883;28;20478;-66
2023/12/29 01:44:21;;;;;;;8.40;8.07;;;21.10;57.00;;;;;;4994386;28;20490;-66
2023/12/29 01:46:52;;;;;;;7.70;7.50;;;21.10;57.00;;;;;;4986439;28;20498;-66
2023/12/29 01:49:20;;;;;;;7.70;7.60;;;21.10;57.00;;;;;;4994673;28;20445;-66
2023/12/29 01:51:50;;;;;;;7.60;7.40;;;21.10;57.00;;;;;;4994808;28;20498;-66
2023/12/29 01:54:19;;;;;;;7.00;6.90;;;21.10;57.00;;;;;;4994340;28;20510;-66
2023/12/29 01:56:47;;;;;;;6.80;6.70;;;21.00;56.90;;;;;;4994708;28;20475;-66
2023/12/29 01:59:14;;;;;;;8.00;7.80;;;21.10;57.00;;;;;;4994764;28;20518;-66
2023/12/29 02:01:41;;;;;;;8.63;8.33;;;21.10;57.00;;;;;;4994302;28;20870;-66
2023/12/29 02:04:10;;;;;;;7.63;7.33;;;21.00;57.00;;;;;;4994207;28;20487;-66
2023/12/29 02:06:38;;;;;;;7.90;7.70;;;21.00;57.00;;;;;;4994233;28;20478;-66
2023/12/29 02:09:05;;;;;;;7.93;7.73;;;21.00;56.90;;;;;;4994418;28;20474;-66
2023/12/29 02:11:33;;;;;;;7.90;7.70;;;21.00;56.90;;;;;;4994347;28;20878;-66
2023/12/29 02:14:00;;;;;;;8.10;7.90;;;21.00;56.90;;;;;;4994153;28;20529;-66
2023/12/29 02:16:36;;;;;;;7.50;7.30;;;21.00;56.90;;;;;;4994276;28;20552;-66
2023/12/29 02:19:12;;;;;;;8.20;7.90;;;21.00;56.90;;;;;;4994041;28;20501;-66
2023/12/29 02:21:40;;;;;;;7.30;7.10;;;21.00;56.90;;;;;;4994132;28;20470;-66
2023/12/29 02:24:07;;;;;;;7.50;7.37;;;21.00;57.00;;;;;;4994259;28;20487;-66
2023/12/29 02:26:37;;;;;;;8.50;8.30;;;21.00;56.90;;;;;;4993765;28;20582;-66
2023/12/29 02:29:08;;;;;;;8.50;8.20;;;21.00;56.90;;;;;;4993520;28;20478;-66
2023/12/29 02:31:39;;;;;;;8.50;8.10;;;21.00;57.00;;;;;;4993799;28;20482;-66
2023/12/29 02:34:10;;;;;;;8.00;7.80;;;21.00;57.10;;;;;;4993691;28;20514;-66
2023/12/29 02:36:42;;;;;;;7.53;7.33;;;21.00;57.10;;;;;;4993746;28;20446;-67
2023/12/29 02:39:10;;;;;;;7.57;7.43;;;21.00;57.10;;;;;;4993613;28;20448;-66
2023/12/29 02:41:39;;;;;;;8.70;8.50;;;21.00;57.10;;;;;;4993591;28;20450;-66
2023/12/29 02:44:06;;;;;;;8.40;8.20;;;21.00;57.10;;;;;;4993664;28;20487;-66
2023/12/29 02:46:32;;;;;;;8.00;7.80;;;21.00;57.10;;;;;;4993533;28;20477;-66
2023/12/29 02:49:00;;;;;;;8.13;7.93;;;20.90;57.00;;;;;;4993463;28;20938;-66
2023/12/29 02:51:27;;;;;;;7.80;7.60;;;21.00;57.00;;;;;;4993134;28;20469;-66
2023/12/29 02:53:53;;;;;;;7.60;7.50;;;21.00;57.00;;;;;;4993532;28;20518;-66
2023/12/29 02:56:21;;;;;;;7.43;7.33;;;21.00;57.00;;;;;;4993190;28;20482;-66
2023/12/29 02:58:51;;;;;;;7.73;7.40;;;21.00;57.00;;;;;;4985089;28;20534;-66
2023/12/29 03:01:18;;;;;;;7.57;7.37;;;21.00;57.00;;;;;;4993248;28;20545;-66
2023/12/29 03:03:45;;;;;;;8.20;8.00;;;21.00;57.00;;;;;;4993293;28;20579;-66
2023/12/29 03:06:12;;;;;;;7.73;7.60;;;21.00;57.00;;;;;;4993238;28;20481;-66
2023/12/29 03:08:39;;;;;;;8.30;8.00;;;20.90;56.90;;;;;;4992792;28;20874;-66
2023/12/29 03:11:05;;;;;;;8.50;8.30;;;20.90;57.10;;;;;;4993075;28;20856;-66
2023/12/29 03:13:32;;;;;;;7.87;7.70;;;20.90;57.20;;;;;;4992791;28;21038;-66
2023/12/29 03:16:01;;;;;;;8.47;8.27;;;20.90;57.20;;;;;;4993172;28;20449;-66
2023/12/29 03:18:28;;;;;;;8.40;8.20;;;20.90;57.20;;;;;;4992687;28;20475;-66
2023/12/29 03:20:55;;;;;;;7.83;7.63;;;20.90;57.20;;;;;;4993036;28;20478;-66
2023/12/29 03:23:22;;;;;;;7.60;7.50;;;20.90;57.20;;;;;;4992918;28;20517;-66
2023/12/29 03:25:48;;;;;;;8.37;8.17;;;20.90;57.10;;;;;;4984631;28;20474;-66
2023/12/29 03:28:15;;;;;;;7.70;7.50;;;20.90;57.10;;;;;;4992352;28;20886;-66
2023/12/29 03:30:42;;;;;;;8.17;7.87;;;20.90;57.10;;;;;;4992854;28;20470;-67
2023/12/29 03:33:10;;;;;;;8.27;8.07;;;20.90;57.10;;;;;;4992713;28;20494;-67
2023/12/29 03:35:37;;;;;;;8.40;8.20;;;20.90;57.20;;;;;;4992331;28;20475;-66
2023/12/29 03:38:05;;;;;;;8.50;8.20;;;20.90;57.10;;;;;;4992575;28;20871;-67
2023/12/29 03:40:32;;;;;;;8.60;8.30;;;20.90;57.00;;;;;;4992899;28;20884;-66
2023/12/29 03:42:59;;;;;;;8.47;8.27;;;20.90;57.00;;;;;;4992691;28;20588;-66
2023/12/29 03:45:26;;;;;;;8.60;8.40;;;20.90;57.00;;;;;;4992396;28;20447;-66
2023/12/29 03:47:53;;;;;;;8.20;8.00;;;20.90;57.00;;;;;;4992346;28;20474;-66
2023/12/29 03:50:21;;;;;;;6.80;6.70;;;20.90;57.00;;;;;;4992082;28;20477;-66
2023/12/29 03:52:48;;;;;;;7.60;7.40;;;20.90;57.00;;;;;;4992247;28;20491;-67
2023/12/29 03:55:15;;;;;;;8.70;8.40;;;20.90;57.00;;;;;;4992495;28;20516;-66
2023/12/29 03:57:43;;;;;;;8.47;8.27;;;20.80;57.00;;;;;;4992288;28;20451;-67
2023/12/29 04:00:13;;;;;;;8.00;7.90;;;20.90;57.00;;;;;;4992304;28;20478;-66
2023/12/29 04:02:40;;;;;;;8.53;8.33;;;20.90;57.10;;;;;;4992237;28;20474;-67
2023/12/29 04:05:09;;;;;;;8.20;8.00;;;20.90;57.10;;;;;;4992241;28;20471;-66
2023/12/29 04:07:39;;;;;;;7.80;7.60;;;20.90;57.10;;;;;;4992173;28;20490;-67
2023/12/29 04:10:07;;;;;;;7.90;7.70;;;20.90;57.10;;;;;;4991638;28;20867;-66
2023/12/29 04:12:34;;;;;;;7.87;7.67;;;20.90;57.20;;;;;;4991706;28;20470;-67
2023/12/29 04:15:01;;;;;;;7.43;7.23;;;20.90;57.20;;;;;;4992143;28;20517;-66
2023/12/29 04:17:27;;;;;;;7.13;7.03;;;20.90;57.20;;;;;;4991976;28;20483;-66
2023/12/29 04:19:54;;;;;;;8.00;7.80;;;20.90;57.10;;;;;;4992295;28;20471;-66
2023/12/29 04:22:21;;;;;;;8.70;8.50;;;20.90;57.10;;;;;;4992151;28;20482;-66
2023/12/29 04:24:49;;;;;;;8.40;8.20;;;20.90;57.10;;;;;;4991613;28;21005;-67
2023/12/29 04:27:16;;;;;;;8.80;8.40;;;20.90;57.20;;;;;;4991982;28;20482;-66
2023/12/29 04:29:44;;;;;;;8.23;8.03;;;20.90;57.10;;;;;;4991963;28;20978;-67
2023/12/29 04:32:11;;;;;;;7.70;7.50;;;20.90;57.10;;;;;;4992026;28;20467;-66
2023/12/29 04:34:38;;;;;;;8.93;8.73;;;20.90;57.20;;;;;;4991715;28;20511;-66
2023/12/29 04:37:05;;;;;;;8.57;8.37;;;20.80;57.10;;;;;;4991676;28;20483;-66
2023/12/29 04:39:32;;;;;;;8.77;8.47;;;20.90;57.10;;;;;;4991842;28;20471;-66
2023/12/29 04:42:00;;;;;;;8.80;8.60;;;20.80;57.20;;;;;;4991856;28;20479;-66
2023/12/29 04:44:27;;;;;;;8.10;7.90;;;20.80;57.30;;;;;;4991719;28;20482;-67
2023/12/29 04:46:53;;;;;;;8.80;8.60;;;20.90;57.40;;;;;;4991818;28;20483;-66
2023/12/29 04:49:20;;;;;;;8.23;8.03;;;20.80;57.30;;;;;;4991639;28;20481;-66
2023/12/29 04:51:48;;;;;;;8.70;8.50;;;20.80;57.30;;;;;;4991666;28;20931;-66
2023/12/29 04:54:15;;;;;;;8.70;8.40;;;20.80;57.40;;;;;;4991704;28;21005;-66
2023/12/29 04:56:42;;;;;;;8.47;8.27;;;20.80;57.50;;;;;;4991878;28;20442;-66
2023/12/29 04:59:10;;;;;;;9.17;8.90;;;20.80;57.40;;;;;;4991988;28;20470;-66
2023/12/29 05:01:37;;;;;;;8.40;8.20;;;20.90;57.50;;;;;;4991640;28;20494;-66
2023/12/29 05:04:04;;;;;;;8.80;8.60;;;20.90;57.40;;;;;;4991664;28;20494;-66
2023/12/29 05:06:31;;;;;;;9.60;9.40;;;20.90;57.40;;;;;;4991619;28;20475;-66
2023/12/29 05:08:58;;;;;;;9.90;9.70;;;20.90;57.50;;;;;;4991800;28;20450;-66
2023/12/29 05:11:25;;;;;;;10.10;9.90;;;20.90;57.50;;;;;;4991633;28;20991;-66
2023/12/29 05:13:52;;;;;;;8.93;8.73;;;20.90;57.50;;;;;;4983519;28;20482;-66
2023/12/29 05:16:21;;;;;;;9.70;9.47;;;20.90;57.50;;;;;;4991807;28;20474;-66
2023/12/29 05:18:48;;;;;;;9.37;9.17;;;20.80;57.40;;;;;;4991549;28;20469;-66
2023/12/29 05:21:18;;;;;;;9.10;8.80;;;20.90;58.00;;;;;;4994064;28;20470;-66
2023/12/29 05:23:46;;;;;;;9.60;9.33;;;20.90;57.50;;;;;;4995043;28;20490;-66
2023/12/29 05:26:13;;;;;;;10.07;9.23;;;20.90;57.60;;;;;;4995421;28;20550;-66
2023/12/29 05:28:39;;;;;;;10.67;10.27;;;20.90;57.50;;;;;;4994946;28;20474;-67
2023/12/29 05:31:06;;;;;;;9.67;9.47;;;20.90;57.50;;;;;;4994781;28;20974;-66
2023/12/29 05:33:35;;;;;;;8.87;8.67;;;20.90;57.50;;;;;;4994761;28;20517;-66
2023/12/29 05:36:08;;;;;;;9.50;9.30;;;20.90;57.50;;;;;;4995263;28;20474;-66
2023/12/29 05:38:35;;;;;;;9.60;9.37;;;20.90;57.50;;;;;;4994776;28;20443;-67
2023/12/29 05:41:04;;;;;;;10.67;10.37;;;20.90;57.60;;;;;;4994736;28;20968;-66
2023/12/29 05:43:32;;;;;;;9.63;9.43;;;20.90;57.60;;;;;;4994456;28;20517;-66
2023/12/29 05:45:59;;;;;;;9.80;9.60;;;20.90;57.60;;;;;;4995041;28;20454;-66
2023/12/29 05:48:26;;;;;;;9.27;9.07;;;20.90;57.50;;;;;;4994681;28;20501;-66
2023/12/29 05:50:54;;;;;;;8.90;8.60;;;20.90;57.50;;;;;;4994458;28;20505;-66
2023/12/29 05:53:21;;;;;;;9.83;9.63;;;20.90;57.50;;;;;;4994350;28;20976;-66
2023/12/29 05:55:48;;;;;;;9.50;9.20;;;20.90;57.50;;;;;;4994674;28;20479;-66
2023/12/29 05:58:15;;;;;;;9.40;9.20;;;20.90;57.40;;;;;;4994677;28;20505;-66
2023/12/29 06:00:44;;;;;;;10.30;9.80;;;20.90;57.40;;;;;;4994323;28;20454;-66
2023/12/29 06:03:11;;;;;;;9.80;9.60;;;20.90;57.50;;;;;;4994450;28;20530;-66
2023/12/29 06:05:38;;;;;;;10.10;9.83;;;20.90;57.40;;;;;;4994235;28;20578;-66
2023/12/29 06:08:07;;;;;;;8.80;8.60;;;20.90;57.40;;;;;;4994297;28;20443;-66
2023/12/29 06:10:36;;;;;;;9.30;9.10;;;20.80;57.30;;;;;;4994268;28;20439;-67
2023/12/29 06:13:03;;;;;;;9.83;9.63;;;20.80;57.30;;;;;;4994240;28;20474;-66
2023/12/29 06:15:30;;;;;;;9.77;9.47;;;20.80;57.20;;;;;;4994169;28;20858;-66
2023/12/29 06:17:57;;;;;;;10.10;9.80;;;20.80;57.20;;;;;;4993905;28;20447;-66
2023/12/29 06:20:24;;;;;;;9.43;9.23;;;20.80;57.20;;;;;;4994098;28;20451;-67
2023/12/29 06:22:51;;;;;;;9.60;9.40;;;20.80;57.20;;;;;;4993857;28;20529;-66
2023/12/29 06:25:20;;;;;;;9.60;9.40;;;20.80;57.30;;;;;;4993702;28;20475;-66
2023/12/29 06:27:47;;;;;;;9.20;9.00;;;20.80;57.30;;;;;;4993677;28;20590;-67
2023/12/29 06:30:15;;;;;;;10.30;9.90;;;20.80;57.40;;;;;;4993965;28;20501;-66
2023/12/29 06:32:42;;;;;;;9.60;9.40;;;20.90;57.40;;;;;;4993016;28;20447;-66
2023/12/29 06:35:10;;;;;;;9.60;9.40;;;20.80;57.40;;;;;;4993534;28;20920;-67
2023/12/29 06:37:38;;;;;;;11.23;10.90;;;20.90;57.40;;;;;;4993635;28;20502;-66
2023/12/29 06:40:06;;;;;;;9.90;9.60;;;20.80;57.30;;;;;;4993666;28;20446;-67
2023/12/29 06:42:35;;;;;;;9.37;9.07;;;20.90;57.40;;;;;;4993457;28;20502;-66
2023/12/29 06:45:02;;;;;;;9.90;9.70;;;20.90;57.60;;;;;;4993267;28;20478;-66
2023/12/29 06:47:29;;;;;;;9.63;9.43;;;20.80;57.50;;;;;;4993605;28;20439;-66
2023/12/29 06:49:57;;;;;;;10.20;10.00;;;20.80;57.40;;;;;;4985780;28;20492;-66
2023/12/29 06:52:24;;;;;;;9.37;9.17;;;20.90;57.40;;;;;;4993522;28;20447;-66
2023/12/29 06:54:50;;;;;;;9.70;9.40;;;20.90;57.70;;;;;;4993152;28;20487;-66
2023/12/29 06:57:17;;;;;;;9.50;9.30;;;20.90;57.70;;;;;;4993140;28;20439;-66
2023/12/29 06:59:46;;;;;;;9.57;9.37;;;20.90;57.80;;;;;;4993634;28;20493;-66
2023/12/29 07:02:13;;;;;;;9.77;9.57;;;20.90;57.80;;;;;;4993790;28;20443;-66
2023/12/29 07:04:43;;;;;;;10.03;9.83;;;20.90;57.80;;;;;;4993101;28;20487;-66
2023/12/29 07:07:10;;;;;;;10.90;10.60;;;20.90;57.80;;;;;;4993204;28;20454;-66
2023/12/29 07:09:40;;;;;;;10.47;10.17;;;20.90;57.70;;;;;;4992926;28;20867;-66
2023/12/29 07:12:07;;;;;;;10.23;9.93;;;20.90;57.70;;;;;;4993457;28;20445;-66
2023/12/29 07:14:35;;;;;;;10.10;9.90;;;20.80;57.60;;;;;;4992792;28;20534;-66
2023/12/29 07:17:04;;;;;;;10.50;10.30;;;20.80;57.60;;;;;;4993047;28;20450;-66
2023/12/29 07:19:36;;;;;;;9.70;9.50;;;20.90;57.60;;;;;;4993069;28;20443;-66
2023/12/29 07:22:04;;;;;;;9.80;9.50;;;20.90;57.60;;;;;;4992841;28;20467;-66
2023/12/29 07:24:31;;;;;;;9.47;9.27;;;20.90;57.60;;;;;;4992891;28;20455;-66
2023/12/29 07:26:58;;;;;;;10.10;9.90;;;20.80;57.40;;;;;;4985032;28;20447;-66
2023/12/29 07:29:25;;;;;;;10.23;9.93;;;20.90;57.50;;;;;;4992574;28;20505;-66
2023/12/29 07:31:52;;;;;;;10.50;10.10;;;20.80;57.40;;;;;;4992935;28;20443;-66
2023/12/29 07:34:21;;;;;;;9.07;8.87;;;20.80;57.40;;;;;;4992574;28;20529;-66
2023/12/29 07:36:48;;;;;;;9.53;9.33;;;20.80;57.30;;;;;;4992506;28;20497;-66
2023/12/29 07:39:15;;;;;;;9.93;9.53;;;20.90;57.20;;;;;;4992635;28;20439;-66
2023/12/29 07:41:42;;;;;;;11.30;10.90;;;20.90;57.40;;;;;;4992542;28;20443;-66
2023/12/29 07:44:11;;;;;;;17.43;14.63;;;20.90;57.50;;;;;;4992549;28;20547;-66
2023/12/29 07:46:38;;;;;;;48.57;22.50;;;20.90;57.40;;;;;;4992345;28;20435;-66
2023/12/29 07:49:05;;;;;;;67.93;31.97;;;20.90;57.50;;;;;;4992646;28;20447;-66
2023/12/29 07:51:34;;;;;;;125.40;40.97;;;20.90;57.90;;;;;;4992235;28;20930;-66
2023/12/29 07:54:01;;;;;;;76.97;37.47;;;20.90;58.30;;;;;;4992517;28;20463;-66
2023/12/29 07:56:27;;;;;;;76.13;31.07;;;20.90;58.80;;;;;;4992286;28;20578;-66
2023/12/29 07:58:54;;;;;;;65.17;30.43;;;20.90;59.20;;;;;;4992249;28;20467;-66
2023/12/29 08:01:21;;;;;;;61.40;31.57;;;20.90;59.40;;;;;;4992432;28;20474;-66
2023/12/29 08:03:48;;;;;;;61.47;27.33;;;20.90;59.60;;;;;;4991502;28;20498;-66
2023/12/29 08:06:15;;;;;;;48.33;28.30;;;20.90;59.30;;;;;;4992345;28;20474;-65
2023/12/29 08:08:43;;;;;;;63.80;28.43;;;20.90;59.20;;;;;;4990425;28;20871;-66
2023/12/29 08:11:15;;;;;;;63.63;28.87;;;20.90;59.50;;;;;;4992071;28;20471;-67
2023/12/29 08:13:44;;;;;;;59.83;30.10;;;20.90;59.80;;;;;;4991427;28;20470;-66
2023/12/29 08:16:11;;;;;;;56.60;28.47;;;20.90;60.20;;;;;;4991334;28;20525;-66
2023/12/29 08:18:38;;;;;;;44.90;26.53;;;20.90;60.40;;;;;;4991218;28;20478;-66
2023/12/29 08:21:05;;;;;;;67.10;28.20;;;20.90;60.10;;;;;;4992014;28;20454;-72
2023/12/29 08:23:32;;;;;;;38.30;26.87;;;21.00;61.70;;;;;;4992538;28;20494;-71
2023/12/29 08:26:04;;;;;;;39.10;24.50;;;21.10;62.00;;;;;;4992906;28;20467;-69
2023/12/29 08:28:31;;;;;;;46.93;25.20;;;21.10;63.00;;;;;;4991941;28;20478;-66
2023/12/29 08:30:58;;;;;;;41.50;27.00;;;21.20;63.00;;;;;;4991956;28;20466;-69
2023/12/29 08:33:26;;;;;;;45.03;26.77;;;21.20;63.90;;;;;;4992256;28;20501;-67
2023/12/29 08:35:53;;;;;;;50.37;26.90;;;21.20;63.00;;;;;;4992061;28;20602;-67
2023/12/29 08:38:20;;;;;;;45.30;30.83;;;21.20;63.00;;;;;;4992142;28;20474;-68
2023/12/29 08:40:48;;;;;;;46.30;24.42;;;21.20;63.00;;;;;;4990516;28;20440;-69
2023/12/29 08:43:20;;;;;;;45.93;24.90;;;21.20;62.10;;;;;;4992249;28;20227;-69
2023/12/29 08:45:47;;;;;;;35.00;23.30;;;21.30;61.40;;;;;;4992077;28;20439;-70
2023/12/29 08:48:15;;;;;;;38.43;24.90;;;21.40;61.10;;;;;;4992102;28;20479;-71
2023/12/29 08:50:42;;;;;;;36.73;22.53;;;21.40;61.10;;;;;;4992651;28;20534;-72
2023/12/29 08:53:10;;;;;;;29.53;23.87;;;21.50;61.30;;;;;;4992298;28;21024;-73
2023/12/29 08:55:38;;;;;;;26.63;22.73;;;21.50;61.20;;;;;;4994856;28;20474;-72
2023/12/29 08:58:05;;;;;;;32.97;22.17;;;21.50;61.50;;;;;;4997408;28;20450;-74
2023/12/29 09:00:34;;;;;;;40.23;21.50;;;21.50;61.50;;;;;;4996330;28;20470;-73
2023/12/29 09:03:01;;;;;;;32.00;23.23;;;21.50;61.10;;;;;;4995837;28;20491;-71
2023/12/29 09:05:28;;;;;;;33.50;22.63;;;21.50;61.60;;;;;;4995766;28;20474;-71
2023/12/29 09:07:55;;;;;;;37.67;21.40;;;21.60;61.60;;;;;;4995988;28;20481;-70
2023/12/29 09:10:22;;;;;;;24.47;21.37;;;21.60;61.30;;;;;;4995592;28;20439;-71
2023/12/29 09:12:49;;;;;;;26.63;21.23;;;21.60;61.30;;;;;;4995300;28;20466;-70
2023/12/29 09:15:17;;;;;;;27.40;20.53;;;21.60;61.20;;;;;;4995397;28;20510;-69
2023/12/29 09:17:45;;;;;;;24.30;21.83;;;21.60;61.10;;;;;;4995733;28;20935;-65
2023/12/29 09:20:14;;;;;;;25.40;20.50;;;21.60;60.70;;;;;;4995344;28;20475;-75
2023/12/29 09:22:41;;;;;;;25.13;19.67;;;21.60;61.10;;;;;;4995949;28;20446;-75
2023/12/29 09:25:08;;;;;;;23.50;20.37;;;21.70;61.10;;;;;;4996997;28;20504;-72
2023/12/29 09:27:35;;;;;;;26.63;20.87;;;21.70;61.40;;;;;;4995557;28;20474;-71
2023/12/29 09:30:02;;;;;;;20.30;18.20;;;21.80;61.30;;;;;;4987426;28;20475;-66
2023/12/29 09:32:29;;;;;;;22.70;19.43;;;21.80;60.90;;;;;;4995018;28;20497;-66
2023/12/29 09:34:57;;;;;;;23.00;17.92;;;21.80;61.10;;;;;;4998604;28;20471;-75
2023/12/29 09:37:24;;;;;;;22.60;15.93;;;21.80;61.70;;;;;;4994906;28;20231;-69
2023/12/29 09:39:51;;;;;;;19.60;16.13;;;21.90;62.50;;;;;;4994924;28;20955;-66
2023/12/29 09:42:23;;;;;;;28.97;26.30;;;21.90;63.20;;;;;;4994992;28;20451;-66
2023/12/29 09:44:51;;;;;;;30.10;27.40;;;21.90;63.70;;;;;;4994346;28;20474;-68
2023/12/29 09:47:23;;;;;;;24.57;22.50;;;21.90;61.90;;;;;;4994703;28;20469;-65
2023/12/29 09:49:52;;;;;;;26.77;24.47;;;21.90;61.90;;;;;;4994684;28;20459;-65
2023/12/29 09:52:22;;;;;;;23.93;21.97;;;21.90;61.70;;;;;;4994396;28;20453;-65
2023/12/29 09:54:50;;;;;;;36.20;33.30;;;21.90;62.40;;;;;;4993871;28;20441;-66
2023/12/29 09:57:19;;;;;;;37.80;34.97;;;21.90;61.00;;;;;;4994554;28;20201;-66
2023/12/29 09:59:51;;;;;;;32.78;30.48;;;22.00;60.40;;;;;;4993412;28;20467;-67
2023/12/29 10:02:24;;;;;;;30.33;27.95;;;22.00;60.10;;;;;;4992797;28;20441;-67
2023/12/29 10:04:53;;;;;;;27.30;25.10;;;22.10;59.70;;;;;;4992610;28;20499;-66
2023/12/29 10:07:30;;;;;;;30.15;27.92;;;22.30;59.70;;;;;;4992628;28;20436;-68
2023/12/29 10:10:03;;;;;;;29.10;26.98;;;22.40;59.30;;;;;;4993439;28;20464;-67
2023/12/29 10:12:40;;;;;;;31.97;29.30;;;22.40;59.00;;;;;;4994030;28;20756;-64
2023/12/29 10:15:16;;;;;;;30.73;28.80;;;22.50;59.00;;;;;;4986917;28;20443;-70
2023/12/29 10:17:53;;;;;;;29.87;28.00;;;22.50;58.80;;;;;;4994294;28;20835;-68
2023/12/29 10:20:39;;;;;;;30.87;28.83;;;22.50;58.80;;;;;;4994065;28;20496;-67
2023/12/29 10:23:12;;;;;;;31.50;29.17;;;22.50;59.10;;;;;;4986120;28;20930;-68
2023/12/29 10:25:40;;;;;;;28.33;26.43;;;22.50;59.60;;;;;;4993880;28;20446;-71
2023/12/29 10:28:09;;;;;;;28.23;26.50;;;22.50;59.10;;;;;;4994076;28;20493;-66
2023/12/29 10:30:36;;;;;;;28.57;26.67;;;22.50;59.10;;;;;;4993233;28;20443;-66
2023/12/29 10:33:05;;;;;;;27.93;26.03;;;22.50;59.00;;;;;;4993876;28;20517;-66
2023/12/29 10:35:34;;;;;;;28.50;26.60;;;22.40;58.90;;;;;;4993875;28;20510;-65
2023/12/29 10:38:11;;;;;;;28.53;26.20;;;22.50;58.90;;;;;;4993593;28;20960;-65
2023/12/29 10:40:38;;;;;;;27.83;25.93;;;22.50;58.80;;;;;;4993610;28;20457;-63
2023/12/29 10:43:07;;;;;;;27.17;25.60;;;22.60;58.70;;;;;;4992824;28;20467;-62
2023/12/29 10:45:34;;;;;;;25.95;23.75;;;22.60;58.50;;;;;;4993058;28;20447;-68
2023/12/29 10:48:02;;;;;;;28.30;26.23;;;22.60;57.70;;;;;;4993491;28;20223;-69
2023/12/29 10:50:29;;;;;;;24.80;23.00;;;22.60;58.30;;;;;;4992331;28;20445;-69
2023/12/29 10:53:16;;;;;;;25.90;24.13;;;22.70;58.20;;;;;;4992814;28;20479;-66
2023/12/29 10:55:44;;;;;;;27.60;25.90;;;22.70;58.00;;;;;;4993354;28;20750;-67
2023/12/29 10:58:12;;;;;;;27.47;25.70;;;22.80;58.50;;;;;;4993387;28;20470;-65
2023/12/29 11:00:40;;;;;;;26.80;25.23;;;22.80;57.80;;;;;;4993175;28;20888;-66
2023/12/29 11:03:16;;;;;;;22.60;20.90;;;22.80;57.60;;;;;;4977116;28;20441;-70
2023/12/29 11:05:45;;;;;;;22.40;21.00;;;22.80;57.70;;;;;;4993197;28;20283;-70
2023/12/29 11:08:24;;;;;;;23.87;22.50;;;22.80;57.40;;;;;;4993189;28;20443;-68
2023/12/29 11:10:54;;;;;;;22.50;21.23;;;22.80;57.20;;;;;;4992936;28;20509;-69
2023/12/29 11:13:22;;;;;;;23.77;22.27;;;22.80;57.60;;;;;;4992552;28;20448;-69
2023/12/29 11:15:49;;;;;;;25.17;23.73;;;22.80;57.90;;;;;;4992769;28;20255;-69
2023/12/29 11:18:18;;;;;;;26.80;25.30;;;22.80;57.80;;;;;;4992595;28;20475;-69
2023/12/29 11:20:46;;;;;;;27.97;26.17;;;22.80;57.50;;;;;;4992991;28;20450;-69
2023/12/29 11:23:15;;;;;;;26.30;25.07;;;22.80;57.20;;;;;;4992418;28;20439;-69
2023/12/29 11:25:46;;;;;;;21.30;20.00;;;22.80;57.00;;;;;;4990025;28;20424;-71
2023/12/29 11:28:12;;;;;;;23.85;22.45;;;22.80;56.80;;;;;;4992510;28;20440;-69
2023/12/29 11:30:40;;;;;;;27.53;26.10;;;22.90;57.10;;;;;;4991897;28;20445;-70
2023/12/29 11:33:13;;;;;;;30.52;28.73;;;22.90;56.80;;;;;;4992010;28;20443;-69
2023/12/29 11:35:46;;;;;;;27.02;25.42;;;22.90;57.10;;;;;;4991949;28;20443;-71
2023/12/29 11:41:44;;;;;;;26.13;24.77;;;23.00;56.90;;;;;;4992461;28;20451;-68
2023/12/29 11:44:17;;;;;;;25.63;24.00;;;23.20;56.40;;;;;;4985293;28;20970;-69
2023/12/29 11:46:45;;;;;;;26.93;25.33;;;23.30;56.00;;;;;;4992446;28;20525;-67
2023/12/29 11:49:15;;;;;;;25.27;23.90;;;23.20;55.30;;;;;;4992585;28;20435;-68
2023/12/29 11:51:44;;;;;;;23.93;22.53;;;23.30;55.60;;;;;;4992347;28;20474;-69
2023/12/29 11:54:24;;;;;;;26.00;24.70;;;23.30;56.40;;;;;;4992499;28;20455;-68
2023/12/29 11:56:57;;;;;;;25.30;24.30;;;23.20;56.40;;;;;;4992211;28;20553;-69
2023/12/29 11:59:27;;;;;;;26.97;25.47;;;23.20;56.30;;;;;;4992204;28;20447;-68
2023/12/29 12:01:55;;;;;;;25.73;24.57;;;23.30;56.20;;;;;;4992262;28;20451;-69
2023/12/29 12:04:36;;;;;;;24.90;23.77;;;23.20;56.00;;;;;;4992553;28;20473;-69
2023/12/29 12:07:04;;;;;;;21.50;20.40;;;23.20;55.80;;;;;;4991108;28;20443;-69
2023/12/29 12:09:32;;;;;;;24.77;23.73;;;23.20;55.40;;;;;;4992260;28;20219;-68
2023/12/29 12:12:01;;;;;;;23.47;22.57;;;23.20;54.60;;;;;;4991939;28;20443;-68
2023/12/29 12:14:48;;;;;;;24.53;23.63;;;23.30;54.50;;;;;;4992192;28;20850;-68
2023/12/29 12:17:28;;;;;;;23.27;22.27;;;23.30;57.00;;;;;;4983863;28;20483;-68
2023/12/29 12:19:58;;;;;;;26.63;25.60;;;23.20;56.20;;;;;;4991966;28;20223;-67
2023/12/29 12:22:26;;;;;;;24.47;23.57;;;23.30;56.20;;;;;;4992150;28;20438;-68
2023/12/29 12:24:58;;;;;;;26.40;25.20;;;23.30;55.70;;;;;;4992123;28;20443;-72
2023/12/29 12:27:28;;;;;;;23.77;22.87;;;23.30;55.50;;;;;;4992097;28;20498;-71
2023/12/29 12:29:57;;;;;;;24.93;23.73;;;23.30;55.10;;;;;;4992743;28;20602;-71
2023/12/29 12:32:24;;;;;;;24.70;23.67;;;23.30;55.00;;;;;;4996369;28;20522;-70
2023/12/29 12:34:51;;;;;;;24.70;23.70;;;23.30;54.90;;;;;;4996124;28;20994;-70
2023/12/29 12:37:22;;;;;;;25.50;24.40;;;23.20;54.90;;;;;;4995835;28;20517;-70
2023/12/29 12:39:49;;;;;;;25.70;24.70;;;23.20;54.90;;;;;;4995834;28;20497;-70
2023/12/29 12:42:17;;;;;;;25.13;24.33;;;23.20;54.80;;;;;;4996091;28;20443;-70
2023/12/29 12:44:54;;;;;;;24.97;24.07;;;23.20;54.90;;;;;;4995884;28;20458;-70
2023/12/29 12:47:28;;;;;;;26.43;25.17;;;23.20;54.90;;;;;;4989278;28;20526;-70